createdAt,value
2023-05-12T00:04:44.325Z,98498.77
2023-05-12T00:09:51.275Z,98502.20
2023-05-12T00:14:58.808Z,98504.95
2023-05-12T00:20:06.488Z,98503.59
2023-05-12T00:25:13.683Z,98504.92
2023-05-12T00:30:21.652Z,98505.66
2023-05-12T00:35:29.491Z,98501.20
2023-05-12T00:40:36.868Z,98501.27
2023-05-12T00:45:44.696Z,98504.61
2023-05-12T00:50:52.103Z,98501.05
2023-05-12T00:55:59.232Z,98505.23
2023-05-12T01:01:06.475Z,98508.62
2023-05-12T01:06:14.902Z,98508.02
2023-05-12T01:11:22.163Z,98512.06
2023-05-12T01:16:34.065Z,98509.27
2023-05-12T01:21:41.565Z,98509.37
2023-05-12T01:26:49.081Z,98507.55
2023-05-12T01:31:57.084Z,98510.95
2023-05-12T01:37:04.522Z,98514.89
2023-05-12T01:42:11.740Z,98518.34
2023-05-12T01:47:18.848Z,98515.18
2023-05-12T01:52:26.494Z,98514.55
2023-05-12T01:57:34.197Z,98517.49
2023-05-12T02:02:42.893Z,98517.97
2023-05-12T02:07:50.548Z,98515.73
2023-05-12T02:12:57.939Z,98514.17
2023-05-12T02:18:05.260Z,98521.25
2023-05-12T02:23:12.615Z,98522.48
2023-05-12T02:28:19.926Z,98516.71
2023-05-12T02:33:27.279Z,98519.27
2023-05-12T02:38:34.501Z,98522.30
2023-05-12T02:43:41.729Z,98520.26
2023-05-12T02:48:48.873Z,98523.01
2023-05-12T02:53:56.141Z,98522.92
2023-05-12T02:59:03.402Z,98522.85
2023-05-12T03:04:11.342Z,98517.34
2023-05-12T03:09:18.893Z,98514.73
2023-05-12T03:14:27.097Z,98515.08
2023-05-12T03:19:35.570Z,98512.59
2023-05-12T03:24:42.670Z,98512.76
2023-05-12T03:29:49.899Z,98517.89
2023-05-12T03:34:56.984Z,98519.15
2023-05-12T03:40:04.409Z,98519.27
2023-05-12T03:45:12.919Z,98520.44
2023-05-12T03:50:20.244Z,98517.91
2023-05-12T03:55:27.680Z,98518.16
2023-05-12T04:00:35.234Z,98519.04
2023-05-12T04:05:43.157Z,98523.63
2023-05-12T04:10:50.620Z,98525.66
2023-05-12T04:15:59.003Z,98527.79
2023-05-12T04:21:06.214Z,98532.29
2023-05-12T04:26:13.635Z,98533.06
2023-05-12T04:31:20.942Z,98536.04
2023-05-12T04:36:28.171Z,98535.67
2023-05-12T04:41:36.379Z,98537.63
2023-05-12T04:46:43.677Z,98539.75
2023-05-12T04:51:51.013Z,98537.11
2023-05-12T04:56:58.799Z,98538.73
2023-05-12T05:02:06.296Z,98541.83
2023-05-12T05:07:13.843Z,98545.21
2023-05-12T05:12:21.218Z,98550.48
2023-05-12T05:17:28.629Z,98555.55
2023-05-12T05:22:36.092Z,98551.83
2023-05-12T05:27:43.622Z,98552.73
2023-05-12T05:32:51.233Z,98557.33
2023-05-12T05:37:58.605Z,98558.27
2023-05-12T05:43:06.069Z,98559.86
2023-05-12T05:48:13.252Z,98562.98
2023-05-12T05:53:20.564Z,98563.88
2023-05-12T05:58:27.794Z,98570.63
2023-05-12T06:03:35.264Z,98574.36
2023-05-12T06:08:42.592Z,98572.82
2023-05-12T06:13:49.886Z,98572.58
2023-05-12T06:18:57.409Z,98571.35
2023-05-12T06:24:05.431Z,98574.75
2023-05-12T06:29:12.978Z,98575.48
2023-05-12T06:34:20.287Z,98574.73
2023-05-12T06:39:27.689Z,98580.16
2023-05-12T06:44:34.951Z,98575.31
2023-05-12T06:49:42.313Z,98580.63
2023-05-12T06:54:49.453Z,98578.91
2023-05-12T06:59:57.165Z,98575.47
2023-05-12T07:05:04.868Z,98576.77
2023-05-12T07:10:12.625Z,98580.56
2023-05-12T07:15:19.973Z,98579.17
2023-05-12T07:20:27.534Z,98582.27
2023-05-12T07:25:34.741Z,98579.06
2023-05-12T07:30:41.704Z,98579.09
2023-05-12T07:35:49.508Z,98580.72
2023-05-12T07:40:57.236Z,98583.73
2023-05-12T07:46:04.336Z,98578.37
2023-05-12T07:51:11.723Z,98579.16
2023-05-12T07:56:19.153Z,98582.61
2023-05-12T08:01:26.648Z,98578.48
2023-05-12T08:06:34.040Z,98584.25
2023-05-12T08:11:41.113Z,98580.95
2023-05-12T08:16:48.486Z,98582.06
2023-05-12T08:21:55.999Z,98577.63
2023-05-12T08:27:03.580Z,98582.69
2023-05-12T08:32:11.276Z,98583.89
2023-05-12T08:37:18.439Z,98579.66
2023-05-12T08:42:32.454Z,98584.30
2023-05-12T08:47:39.847Z,98576.40
2023-05-12T08:52:47.063Z,98585.03
2023-05-12T08:57:54.384Z,98584.38
2023-05-12T09:03:03.088Z,98584.19
2023-05-12T09:08:11.363Z,98586.91
2023-05-12T09:13:20.107Z,98587.77
2023-05-12T09:18:27.538Z,98589.81
2023-05-12T09:23:34.871Z,98587.90
2023-05-12T09:28:41.907Z,98586.54
2023-05-12T09:33:48.978Z,98588.09
2023-05-12T09:39:05.010Z,98587.23
2023-05-12T09:44:12.822Z,98586.45
2023-05-12T09:49:24.300Z,98584.42
2023-05-12T09:54:31.657Z,98585.73
2023-05-12T09:59:40.489Z,98586.45
2023-05-12T10:04:51.314Z,98575.64
2023-05-12T10:10:01.347Z,98580.21
2023-05-12T10:15:09.752Z,98585.40
2023-05-12T10:20:17.803Z,98589.95
2023-05-12T10:25:25.084Z,98584.66
2023-05-12T10:30:33.141Z,98583.63
2023-05-12T10:35:41.122Z,98580.95
2023-05-12T10:40:58.619Z,98587.86
2023-05-12T10:46:18.383Z,98587.42
2023-05-12T10:51:26.885Z,98578.97
2023-05-12T10:56:45.212Z,98588.06
2023-05-12T11:02:06.993Z,98588.05
2023-05-12T11:07:16.539Z,98585.27
2023-05-12T11:12:24.887Z,98583.19
2023-05-12T11:17:32.785Z,98578.14
2023-05-12T11:22:43.110Z,98584.70
2023-05-12T11:27:53.929Z,98581.33
2023-05-12T11:33:04.442Z,98581.50
2023-05-12T11:38:18.593Z,98584.83
2023-05-12T11:43:26.467Z,98589.66
2023-05-12T11:48:36.863Z,98592.32
2023-05-12T11:53:44.441Z,98594.55
2023-05-12T11:58:58.566Z,98588.70
2023-05-12T12:04:06.610Z,98595.20
2023-05-12T12:09:14.222Z,98604.16
2023-05-12T12:14:21.425Z,98598.30
2023-05-12T12:19:28.887Z,98592.44
2023-05-12T12:24:36.273Z,98594.96
2023-05-12T12:29:43.824Z,98599.06
2023-05-12T12:34:50.799Z,98600.34
2023-05-12T12:39:58.221Z,98599.62
2023-05-12T12:45:05.736Z,98600.02
2023-05-12T12:50:14.076Z,98602.46
2023-05-12T12:55:22.290Z,98594.41
2023-05-12T13:00:29.378Z,98595.11
2023-05-12T13:05:36.751Z,98599.75
2023-05-12T13:10:43.946Z,98595.02
2023-05-12T13:15:50.902Z,98600.26
2023-05-12T13:20:58.734Z,98591.22
2023-05-12T13:26:06.090Z,98594.84
2023-05-12T13:31:13.449Z,98590.94
2023-05-12T13:36:21.078Z,98582.89
2023-05-12T13:41:28.250Z,98583.02
2023-05-12T13:46:35.793Z,98582.52
2023-05-12T13:51:42.830Z,98591.08
2023-05-12T13:56:50.186Z,98593.03
2023-05-12T14:01:57.462Z,98591.72
2023-05-12T14:07:07.770Z,98586.66
2023-05-12T14:12:16.440Z,98583.02
2023-05-12T14:17:23.502Z,98582.59
2023-05-12T14:22:30.758Z,98577.77
2023-05-12T14:27:38.347Z,98581.50
2023-05-12T14:32:45.803Z,98580.33
2023-05-12T14:37:53.408Z,98585.55
2023-05-12T14:43:00.798Z,98584.51
2023-05-12T14:48:08.581Z,98586.02
2023-05-12T14:53:15.808Z,98584.59
2023-05-12T14:58:24.614Z,98590.02
2023-05-12T15:03:34.218Z,98582.90
2023-05-12T15:08:41.721Z,98584.40
2023-05-12T15:13:49.363Z,98585.16
2023-05-12T15:18:56.781Z,98588.27
2023-05-12T15:24:03.812Z,98592.88
2023-05-12T15:29:11.235Z,98591.50
2023-05-12T15:34:18.654Z,98587.94
2023-05-12T15:39:26.595Z,98595.70
2023-05-12T15:44:33.705Z,98600.84
2023-05-12T15:49:41.075Z,98594.77
2023-05-12T15:54:48.148Z,98594.71
2023-05-12T16:00:00.677Z,98597.61
2023-05-12T16:05:08.495Z,98594.59
2023-05-12T16:10:16.147Z,98596.56
2023-05-12T16:15:23.597Z,98594.50
2023-05-12T16:20:30.747Z,98595.00
2023-05-12T16:25:38.164Z,98596.09
2023-05-12T16:30:45.561Z,98603.28
2023-05-12T16:35:53.040Z,98601.84
2023-05-12T16:41:02.013Z,98610.35
2023-05-12T16:46:09.600Z,98621.09
2023-05-12T16:51:17.111Z,98620.78
2023-05-12T16:56:24.466Z,98618.95
2023-05-12T17:01:32.038Z,98620.60
2023-05-12T17:06:39.227Z,98618.97
2023-05-12T17:11:46.494Z,98623.69
2023-05-12T17:16:53.862Z,98628.50
2023-05-12T17:22:01.591Z,98631.61
2023-05-12T17:27:09.205Z,98635.94
2023-05-12T17:32:16.651Z,98643.77
2023-05-12T17:37:24.164Z,98645.85
2023-05-12T17:42:32.233Z,98648.92
2023-05-12T17:47:39.340Z,98654.71
2023-05-12T17:52:46.532Z,98654.16
2023-05-12T17:57:53.601Z,98663.88
2023-05-12T18:03:01.068Z,98665.45
2023-05-12T18:08:09.193Z,98663.70
2023-05-12T18:13:16.686Z,98665.70
2023-05-12T18:18:24.619Z,98664.19
2023-05-12T18:23:32.165Z,98672.83
2023-05-12T18:28:39.640Z,98677.18
2023-05-12T18:33:47.861Z,98683.65
2023-05-12T18:38:55.076Z,98692.23
2023-05-12T18:44:02.298Z,98694.89
2023-05-12T18:49:10.562Z,98695.63
2023-05-12T18:54:17.875Z,98703.05
2023-05-12T18:59:25.316Z,98704.59
2023-05-12T19:04:32.625Z,98708.43
2023-05-12T19:09:39.858Z,98710.34
2023-05-12T19:14:47.048Z,98712.94
2023-05-12T19:19:54.336Z,98715.66
2023-05-12T19:25:01.505Z,98718.98
2023-05-12T19:30:09.605Z,98724.29
2023-05-12T19:35:17.660Z,98726.18
2023-05-12T19:40:25.076Z,98731.17
2023-05-12T19:45:32.699Z,98732.84
2023-05-12T19:50:40.593Z,98739.64
2023-05-12T19:55:47.966Z,98741.23
2023-05-12T20:00:56.213Z,98733.44
2023-05-12T20:06:03.286Z,98737.67
2023-05-12T20:11:10.427Z,98735.58
2023-05-12T20:16:17.583Z,98737.98
2023-05-12T20:21:24.969Z,98739.67
2023-05-12T20:26:32.165Z,98739.55
2023-05-12T20:31:39.873Z,98729.91
2023-05-12T20:36:47.455Z,98726.60
2023-05-12T20:41:55.001Z,98725.53
2023-05-12T20:47:02.466Z,98724.67
2023-05-12T20:52:09.954Z,98716.67
2023-05-12T20:57:17.135Z,98716.98
2023-05-12T21:02:24.564Z,98720.09
2023-05-12T21:07:32.183Z,98727.27
2023-05-12T21:12:39.868Z,98731.14
2023-05-12T21:17:46.899Z,98725.77
2023-05-12T21:22:54.433Z,98726.83
2023-05-12T21:28:01.966Z,98728.27
2023-05-12T21:33:10.013Z,98731.38
2023-05-12T21:38:17.409Z,98725.83
2023-05-12T21:43:24.696Z,98727.11
2023-05-12T21:48:32.318Z,98723.65
2023-05-12T21:53:39.304Z,98731.86
2023-05-12T21:58:46.395Z,98729.41
2023-05-12T22:03:53.609Z,98731.15
2023-05-12T22:09:01.148Z,98730.59
2023-05-12T22:14:08.643Z,98731.36
2023-05-12T22:19:17.131Z,98732.26
2023-05-12T22:24:24.136Z,98734.39
2023-05-12T22:29:31.278Z,98730.27
2023-05-12T22:34:38.459Z,98736.84
2023-05-12T22:39:45.565Z,98735.80
2023-05-12T22:44:52.870Z,98745.33
2023-05-12T22:50:00.355Z,98748.00
2023-05-12T22:55:07.941Z,98748.18
2023-05-12T23:00:16.070Z,98746.77
2023-05-12T23:05:23.738Z,98740.26
2023-05-12T23:10:31.112Z,98747.30
2023-05-12T23:15:38.536Z,98751.74
2023-05-12T23:20:46.226Z,98757.29
2023-05-12T23:25:53.581Z,98754.21
2023-05-12T23:31:00.900Z,98759.84
2023-05-12T23:36:08.483Z,98761.41
2023-05-12T23:41:15.854Z,98757.63
2023-05-12T23:52:16.826Z,98749.14
2023-05-12T23:57:23.716Z,98753.23
